createdAt,value
2023-01-18T00:01:15.683Z,2.00
2023-01-18T00:03:43.922Z,1.93
2023-01-18T00:06:12.763Z,2.30
2023-01-18T00:08:42.479Z,1.90
2023-01-18T00:11:13.956Z,1.57
2023-01-18T00:13:42.416Z,1.90
2023-01-18T00:16:14.664Z,2.00
2023-01-18T00:18:43.046Z,2.10
2023-01-18T00:21:13.153Z,2.20
2023-01-18T00:23:42.064Z,1.77
2023-01-18T00:26:13.202Z,1.70
2023-01-18T00:28:42.130Z,1.67
2023-01-18T00:31:11.709Z,2.00
2023-01-18T00:33:40.248Z,2.10
2023-01-18T00:36:08.888Z,1.70
2023-01-18T00:38:37.042Z,1.60
2023-01-18T00:41:05.721Z,1.53
2023-01-18T00:43:40.282Z,1.50
2023-01-18T00:46:09.456Z,1.80
2023-01-18T00:48:38.888Z,1.50
2023-01-18T00:51:07.852Z,1.50
2023-01-18T00:53:36.657Z,1.83
2023-01-18T00:56:06.881Z,1.33
2023-01-18T00:58:37.600Z,1.83
2023-01-18T01:01:06.767Z,2.05
2023-01-18T01:03:55.442Z,1.17
2023-01-18T01:06:46.114Z,1.80
2023-01-18T01:09:17.612Z,1.60
2023-01-18T01:12:06.332Z,1.20
2023-01-18T01:14:55.952Z,1.53
2023-01-18T01:17:41.560Z,1.43
2023-01-18T01:20:28.590Z,1.50
2023-01-18T01:23:14.311Z,1.20
2023-01-18T01:25:59.878Z,1.50
2023-01-18T01:28:28.194Z,1.50
2023-01-18T01:31:00.509Z,1.90
2023-01-18T01:33:29.103Z,1.47
2023-01-18T01:35:58.037Z,1.80
2023-01-18T01:38:26.566Z,1.77
2023-01-18T01:40:59.999Z,1.87
2023-01-18T01:43:46.161Z,1.77
2023-01-18T01:46:26.435Z,1.80
2023-01-18T01:49:00.145Z,1.53
2023-01-18T01:51:28.530Z,1.67
2023-01-18T01:54:00.810Z,1.50
2023-01-18T01:56:30.517Z,2.30
2023-01-18T01:59:02.650Z,2.00
2023-01-18T02:01:32.443Z,2.50
2023-01-18T02:04:03.092Z,2.27
2023-01-18T02:06:35.941Z,1.80
2023-01-18T02:09:07.944Z,1.83
2023-01-18T02:11:36.383Z,1.43
2023-01-18T02:14:08.532Z,2.10
2023-01-18T02:16:56.148Z,1.50
2023-01-18T02:20:04.740Z,1.50
2023-01-18T02:22:52.526Z,1.20
2023-01-18T02:25:52.705Z,1.90
2023-01-18T02:28:26.514Z,2.70
2023-01-18T02:31:00.659Z,2.70
2023-01-18T02:33:33.954Z,2.40
2023-01-18T02:36:04.576Z,2.37
2023-01-18T02:38:39.993Z,2.40
2023-01-18T02:41:14.214Z,2.57
2023-01-18T02:44:03.697Z,2.10
2023-01-18T02:46:34.895Z,2.03
2023-01-18T02:49:07.872Z,1.70
2023-01-18T02:51:36.824Z,1.80
2023-01-18T02:54:07.552Z,1.60
2023-01-18T02:56:40.771Z,1.93
2023-01-18T02:59:13.883Z,1.63
2023-01-18T03:01:46.198Z,1.70
2023-01-18T03:04:18.101Z,1.70
2023-01-18T03:06:51.613Z,1.60
2023-01-18T03:09:22.543Z,1.47
2023-01-18T03:11:59.516Z,1.60
2023-01-18T03:14:41.905Z,1.90
2023-01-18T03:17:18.849Z,2.13
2023-01-18T03:20:08.706Z,2.40
2023-01-18T03:22:56.605Z,2.30
2023-01-18T03:25:29.501Z,2.20
2023-01-18T03:28:17.760Z,1.97
2023-01-18T03:31:05.993Z,2.20
2023-01-18T03:33:44.802Z,2.30
2023-01-18T03:36:20.737Z,2.80
2023-01-18T03:38:54.009Z,2.93
2023-01-18T03:41:25.996Z,2.80
2023-01-18T03:43:58.325Z,2.80
2023-01-18T03:46:32.104Z,2.57
2023-01-18T03:49:00.865Z,3.10
2023-01-18T03:51:41.727Z,3.17
2023-01-18T03:54:16.510Z,2.77
2023-01-18T03:56:49.848Z,2.13
2023-01-18T03:59:18.203Z,2.23
2023-01-18T04:01:48.320Z,2.87
2023-01-18T04:04:16.682Z,2.50
2023-01-18T04:06:44.951Z,3.00
2023-01-18T04:09:13.425Z,2.83
2023-01-18T04:11:41.769Z,2.80
2023-01-18T04:14:10.131Z,2.33
2023-01-18T04:16:38.355Z,2.20
2023-01-18T04:19:08.800Z,2.43
2023-01-18T04:21:38.552Z,2.23
2023-01-18T04:24:07.181Z,2.50
2023-01-18T04:26:35.459Z,2.70
2023-01-18T04:29:03.956Z,2.53
2023-01-18T04:31:32.479Z,2.43
2023-01-18T04:34:00.856Z,2.47
2023-01-18T04:36:30.571Z,2.27
2023-01-18T04:38:59.344Z,2.53
2023-01-18T04:41:27.728Z,2.70
2023-01-18T04:43:55.936Z,2.47
2023-01-18T04:46:24.390Z,1.80
2023-01-18T04:48:53.035Z,2.80
2023-01-18T04:51:21.309Z,2.13
2023-01-18T04:53:51.741Z,2.70
2023-01-18T04:56:20.362Z,2.57
2023-01-18T04:58:48.626Z,2.50
2023-01-18T05:01:17.235Z,2.90
2023-01-18T05:03:45.612Z,2.77
2023-01-18T05:06:16.136Z,2.60
2023-01-18T05:08:44.594Z,2.57
2023-01-18T05:11:16.293Z,2.87
2023-01-18T05:16:15.579Z,2.43
2023-01-18T05:18:44.328Z,2.63
2023-01-18T05:21:13.073Z,2.20
2023-01-18T05:23:41.536Z,2.83
2023-01-18T05:26:16.323Z,2.53
2023-01-18T05:28:44.981Z,2.40
2023-01-18T05:31:13.524Z,2.47
2023-01-18T05:33:42.044Z,2.90
2023-01-18T05:36:10.535Z,2.50
2023-01-18T05:38:38.770Z,2.50
2023-01-18T05:41:07.695Z,3.00
2023-01-18T05:43:38.291Z,2.50
2023-01-18T05:46:07.201Z,2.83
2023-01-18T05:48:35.527Z,2.73
2023-01-18T05:51:09.343Z,2.93
2023-01-18T05:53:37.589Z,3.60
2023-01-18T05:56:08.056Z,3.23
2023-01-18T05:58:38.456Z,3.20
2023-01-18T06:01:07.719Z,3.70
2023-01-18T06:03:36.282Z,4.07
2023-01-18T06:06:04.844Z,4.17
2023-01-18T06:08:33.061Z,3.73
2023-01-18T06:11:02.111Z,3.20
2023-01-18T06:13:32.785Z,3.00
2023-01-18T06:16:03.204Z,2.40
2023-01-18T06:18:33.615Z,2.53
2023-01-18T06:21:03.557Z,3.07
2023-01-18T06:23:32.025Z,3.00
2023-01-18T06:26:00.543Z,2.97
2023-01-18T06:28:30.676Z,3.50
2023-01-18T06:30:59.259Z,3.37
2023-01-18T06:33:29.048Z,3.00
2023-01-18T06:35:57.632Z,3.63
2023-01-18T06:38:25.862Z,3.77
2023-01-18T06:40:54.060Z,3.70
2023-01-18T06:43:22.936Z,4.10
2023-01-18T06:45:55.366Z,3.60
2023-01-18T06:48:24.222Z,3.67
2023-01-18T06:50:57.095Z,3.40
2023-01-18T06:53:25.657Z,2.80
2023-01-18T06:55:55.121Z,2.77
2023-01-18T06:58:24.106Z,2.97
2023-01-18T07:00:52.823Z,3.20
2023-01-18T07:03:21.113Z,3.27
2023-01-18T07:05:49.333Z,3.23
2023-01-18T07:08:21.114Z,3.40
2023-01-18T07:10:49.491Z,3.47
2023-01-18T07:13:17.865Z,3.30
2023-01-18T07:15:46.105Z,2.90
2023-01-18T07:18:15.437Z,3.20
2023-01-18T07:20:43.661Z,3.13
2023-01-18T07:23:11.826Z,3.20
2023-01-18T07:25:41.442Z,3.23
2023-01-18T07:28:09.684Z,3.93
2023-01-18T07:30:37.940Z,3.50
2023-01-18T07:33:07.069Z,3.37
2023-01-18T07:35:35.380Z,4.10
2023-01-18T07:38:03.590Z,3.97
2023-01-18T07:40:31.884Z,3.07
2023-01-18T07:43:03.076Z,3.23
2023-01-18T07:45:31.417Z,2.95
2023-01-18T07:47:59.945Z,2.47
2023-01-18T07:50:28.179Z,2.33
2023-01-18T07:52:57.054Z,2.47
2023-01-18T07:55:25.594Z,2.33
2023-01-18T07:57:53.839Z,2.93
2023-01-18T08:00:24.463Z,3.10
2023-01-18T08:02:52.996Z,3.03
2023-01-18T08:05:24.107Z,2.90
2023-01-18T08:07:53.710Z,3.50
2023-01-18T08:10:22.442Z,2.67
2023-01-18T08:12:51.778Z,2.37
2023-01-18T08:15:20.027Z,2.70
2023-01-18T08:17:51.296Z,3.17
2023-01-18T08:20:20.870Z,3.38
2023-01-18T08:22:49.024Z,3.08
2023-01-18T08:25:18.208Z,2.88
2023-01-18T08:27:46.964Z,4.00
2023-01-18T08:30:15.949Z,8.17
2023-01-18T08:32:44.140Z,10.07
2023-01-18T08:35:13.740Z,2.70
2023-01-18T08:37:42.007Z,1.98
2023-01-18T08:40:11.940Z,2.40
2023-01-18T08:42:40.157Z,2.20
2023-01-18T08:45:10.882Z,2.22
2023-01-18T08:47:39.198Z,3.13
2023-01-18T08:50:08.114Z,3.00
2023-01-18T08:52:37.809Z,2.53
2023-01-18T08:55:07.475Z,1.85
2023-01-18T08:57:35.749Z,1.92
2023-01-18T09:00:04.703Z,1.77
2023-01-18T09:02:32.958Z,1.95
2023-01-18T09:05:01.211Z,2.10
2023-01-18T09:07:29.536Z,2.33
2023-01-18T09:09:59.218Z,1.10
2023-01-18T09:12:27.562Z,1.00
2023-01-18T09:14:55.741Z,1.00
2023-01-18T09:17:24.018Z,1.15
2023-01-18T09:19:52.722Z,1.10
2023-01-18T09:22:21.110Z,1.02
2023-01-18T09:24:49.315Z,1.00
2023-01-18T09:27:18.971Z,0.88
2023-01-18T09:29:52.218Z,0.70
2023-01-18T09:32:21.243Z,0.80
2023-01-18T09:34:50.805Z,0.50
2023-01-18T09:37:19.374Z,0.45
2023-01-18T09:39:52.249Z,0.47
2023-01-18T09:42:24.891Z,0.60
2023-01-18T09:44:55.024Z,0.60
2023-01-18T09:47:26.648Z,0.88
2023-01-18T09:49:57.498Z,0.65
2023-01-18T09:52:35.681Z,0.70
2023-01-18T09:55:12.501Z,0.60
2023-01-18T09:57:50.828Z,0.30
2023-01-18T10:00:23.825Z,0.88
2023-01-18T10:02:56.148Z,1.15
2023-01-18T10:05:28.075Z,0.80
2023-01-18T10:08:04.312Z,1.33
2023-01-18T10:10:45.070Z,0.98
2023-01-18T10:13:37.979Z,0.95
2023-01-18T10:16:09.613Z,1.60
2023-01-18T10:21:23.756Z,1.17
2023-01-18T10:24:06.653Z,1.10
2023-01-18T10:26:39.175Z,1.10
2023-01-18T10:29:15.912Z,1.30
2023-01-18T10:31:55.869Z,0.80
2023-01-18T10:34:27.421Z,1.02
2023-01-18T10:36:59.973Z,1.02
2023-01-18T10:39:36.024Z,0.70
2023-01-18T10:42:13.412Z,1.00
2023-01-18T10:44:43.003Z,0.90
2023-01-18T10:47:12.062Z,0.77
2023-01-18T10:49:43.183Z,0.60
2023-01-18T10:52:26.249Z,0.80
2023-01-18T10:54:58.133Z,0.52
2023-01-18T10:57:30.454Z,0.65
2023-01-18T11:00:00.895Z,0.57
2023-01-18T11:02:31.661Z,0.70
2023-01-18T11:05:03.792Z,0.90
2023-01-18T11:07:32.000Z,0.80
2023-01-18T11:10:06.547Z,0.82
2023-01-18T11:12:41.225Z,0.90
2023-01-18T11:15:32.437Z,0.70
2023-01-18T11:18:03.957Z,0.90
2023-01-18T11:20:36.045Z,0.80
2023-01-18T11:23:07.133Z,0.77
2023-01-18T11:25:40.287Z,0.75
2023-01-18T11:28:18.191Z,1.02
2023-01-18T11:30:54.158Z,1.20
2023-01-18T11:33:24.729Z,0.88
2023-01-18T11:35:59.225Z,1.10
2023-01-18T11:38:30.969Z,1.17
2023-01-18T11:43:49.463Z,1.30
2023-01-18T11:46:43.707Z,1.42
2023-01-18T11:49:28.762Z,1.20
2023-01-18T11:52:01.902Z,1.50
2023-01-18T11:54:37.597Z,1.40
2023-01-18T11:57:10.361Z,1.48
2023-01-18T11:59:42.866Z,1.40
2023-01-18T12:02:31.183Z,1.40
2023-01-18T12:05:20.946Z,1.80
2023-01-18T12:08:00.192Z,1.45
2023-01-18T12:10:34.944Z,1.20
2023-01-18T12:13:20.231Z,1.55
2023-01-18T12:16:01.021Z,1.52
2023-01-18T12:18:51.090Z,1.40
2023-01-18T12:21:27.584Z,1.20
2023-01-18T12:24:08.654Z,1.70
2023-01-18T12:26:49.639Z,1.40
2023-01-18T12:29:30.760Z,1.00
2023-01-18T12:32:11.062Z,1.15
2023-01-18T12:34:43.064Z,1.90
2023-01-18T12:37:26.239Z,1.35
2023-01-18T12:40:05.679Z,1.42
2023-01-18T12:42:48.192Z,1.58
2023-01-18T12:45:28.410Z,1.20
2023-01-18T12:48:08.998Z,1.55
2023-01-18T12:50:42.557Z,1.35
2023-01-18T12:53:16.228Z,1.52
2023-01-18T12:55:47.409Z,2.15
2023-01-18T12:58:21.375Z,1.55
2023-01-18T13:00:54.650Z,1.70
2023-01-18T13:03:27.168Z,1.77
2023-01-18T13:06:00.037Z,1.70
2023-01-18T13:08:40.130Z,1.92
2023-01-18T13:11:13.832Z,1.75
2023-01-18T13:13:45.041Z,1.80
2023-01-18T13:16:33.962Z,1.65
2023-01-18T13:19:05.605Z,1.80
2023-01-18T13:21:47.613Z,1.67
2023-01-18T13:24:37.514Z,1.55
2023-01-18T13:27:10.778Z,1.63
2023-01-18T13:29:39.932Z,1.80
2023-01-18T13:32:32.810Z,1.67
2023-01-18T13:35:19.441Z,1.80
2023-01-18T13:37:53.397Z,2.00
2023-01-18T13:40:26.503Z,1.85
2023-01-18T13:42:55.067Z,1.65
2023-01-18T13:45:24.939Z,2.15
2023-01-18T13:48:07.415Z,2.13
2023-01-18T13:50:47.358Z,2.20
2023-01-18T13:53:29.493Z,2.17
2023-01-18T13:56:33.281Z,2.20
2023-01-18T13:59:20.879Z,2.00
2023-01-18T14:01:50.572Z,2.43
2023-01-18T14:04:29.124Z,3.13
2023-01-18T14:06:59.768Z,3.40
2023-01-18T14:09:39.311Z,3.10
2023-01-18T14:12:08.920Z,2.60
2023-01-18T14:14:52.623Z,3.00
2023-01-18T14:17:20.886Z,2.90
2023-01-18T14:20:30.385Z,3.30
2023-01-18T14:23:12.379Z,3.50
2023-01-18T14:25:58.979Z,2.30
2023-01-18T14:28:35.448Z,2.67
2023-01-18T14:31:06.002Z,2.50
2023-01-18T14:33:37.166Z,2.47
2023-01-18T14:36:08.578Z,2.40
2023-01-18T14:38:37.262Z,2.40
2023-01-18T14:41:09.980Z,2.50
2023-01-18T14:43:43.381Z,2.20
2023-01-18T14:46:16.014Z,2.80
2023-01-18T14:48:49.025Z,2.87
2023-01-18T14:51:19.954Z,2.50
2023-01-18T14:53:52.912Z,3.05
2023-01-18T14:56:23.872Z,2.33
2023-01-18T14:58:58.506Z,3.30
2023-01-18T15:01:32.807Z,2.50
2023-01-18T15:04:03.098Z,2.50
2023-01-18T15:06:39.932Z,2.83
2023-01-18T15:09:10.650Z,2.60
2023-01-18T15:11:42.316Z,2.93
2023-01-18T15:16:40.438Z,2.37
2023-01-18T15:19:16.893Z,3.40
2023-01-18T15:21:46.086Z,3.10
2023-01-18T15:24:18.644Z,3.27
2023-01-18T15:26:52.489Z,2.70
2023-01-18T15:29:25.908Z,2.40
2023-01-18T15:31:56.195Z,3.20
2023-01-18T15:34:29.716Z,2.93
2023-01-18T15:36:59.748Z,2.30
2023-01-18T15:39:28.051Z,2.50
2023-01-18T15:41:58.703Z,2.53
2023-01-18T15:44:39.601Z,2.67
2023-01-18T15:47:16.900Z,2.40
2023-01-18T15:49:48.777Z,3.03
2023-01-18T15:52:17.824Z,2.57
2023-01-18T15:54:51.164Z,2.30
2023-01-18T15:57:21.562Z,2.37
2023-01-18T15:59:49.837Z,2.20
2023-01-18T16:02:20.911Z,2.20
2023-01-18T16:04:49.342Z,1.85
2023-01-18T16:07:37.124Z,2.50
2023-01-18T16:10:28.374Z,2.50
2023-01-18T16:13:31.730Z,2.00
2023-01-18T16:16:20.212Z,2.30
2023-01-18T16:18:51.685Z,2.30
2023-01-18T16:21:32.868Z,2.00
2023-01-18T16:24:01.247Z,2.28
2023-01-18T16:26:32.101Z,2.80
2023-01-18T16:29:09.405Z,2.35
2023-01-18T16:31:41.795Z,2.20
2023-01-18T16:34:27.490Z,2.17
2023-01-18T16:36:55.831Z,2.30
2023-01-18T16:39:24.602Z,2.13
2023-01-18T16:41:57.309Z,2.20
2023-01-18T16:44:27.722Z,2.23
2023-01-18T16:46:55.868Z,2.50
2023-01-18T16:49:24.081Z,2.10
2023-01-18T16:51:52.265Z,2.50
2023-01-18T16:54:20.451Z,2.50
2023-01-18T16:56:48.699Z,2.43
2023-01-18T16:59:18.832Z,2.23
2023-01-18T17:01:48.836Z,2.20
2023-01-18T17:04:17.528Z,1.90
2023-01-18T17:06:46.182Z,2.17
2023-01-18T17:09:23.234Z,2.20
2023-01-18T17:11:51.806Z,2.30
2023-01-18T17:14:21.104Z,2.60
2023-01-18T17:16:50.705Z,2.40
2023-01-18T17:19:21.479Z,2.20
2023-01-18T17:21:50.889Z,2.27
2023-01-18T17:24:21.469Z,2.57
2023-01-18T17:26:49.650Z,2.53
2023-01-18T17:29:21.314Z,2.50
2023-01-18T17:34:27.808Z,2.03
2023-01-18T17:36:57.879Z,2.40
2023-01-18T17:39:42.481Z,2.33
2023-01-18T17:42:22.337Z,2.43
2023-01-18T17:45:02.594Z,2.80
2023-01-18T17:47:33.891Z,2.37
2023-01-18T17:50:08.578Z,2.25
2023-01-18T17:52:37.189Z,2.70
2023-01-18T17:55:06.169Z,2.20
2023-01-18T17:57:34.579Z,2.30
2023-01-18T18:00:02.848Z,3.10
2023-01-18T18:02:32.567Z,2.20
2023-01-18T18:05:01.031Z,3.80
2023-01-18T18:07:29.595Z,3.40
2023-01-18T18:10:01.069Z,2.67
2023-01-18T18:12:29.969Z,2.67
2023-01-18T18:14:58.248Z,2.53
2023-01-18T18:17:28.244Z,3.20
2023-01-18T18:19:57.926Z,3.17
2023-01-18T18:22:26.492Z,2.60
2023-01-18T18:24:54.794Z,3.37
2023-01-18T18:27:24.817Z,2.93
2023-01-18T18:29:54.972Z,3.17
2023-01-18T18:32:23.250Z,3.10
2023-01-18T18:34:51.431Z,2.83
2023-01-18T18:37:21.081Z,3.00
2023-01-18T18:39:49.429Z,2.90
2023-01-18T18:42:17.718Z,3.03
2023-01-18T18:44:45.914Z,2.70
2023-01-18T18:47:14.141Z,2.87
2023-01-18T18:49:43.687Z,3.17
2023-01-18T18:52:11.895Z,3.40
2023-01-18T18:54:41.511Z,3.10
2023-01-18T18:57:09.787Z,2.80
2023-01-18T18:59:38.030Z,3.73
2023-01-18T19:02:06.510Z,2.80
2023-01-18T19:04:34.793Z,2.67
2023-01-18T19:07:05.331Z,3.73
2023-01-18T19:09:34.257Z,3.23
2023-01-18T19:12:03.866Z,2.90
2023-01-18T19:14:32.265Z,3.43
2023-01-18T19:17:00.826Z,3.30
2023-01-18T19:19:29.165Z,3.93
2023-01-18T19:21:57.361Z,3.60
2023-01-18T19:24:26.048Z,3.37
2023-01-18T19:26:54.285Z,3.30
2023-01-18T19:29:23.901Z,3.33
2023-01-18T19:31:52.545Z,3.53
2023-01-18T19:34:21.375Z,3.47
2023-01-18T19:36:49.715Z,3.00
2023-01-18T19:39:22.515Z,4.03
2023-01-18T19:41:52.466Z,4.07
2023-01-18T19:44:20.805Z,3.53
2023-01-18T19:46:51.100Z,3.37
2023-01-18T19:49:20.195Z,3.50
2023-01-18T19:51:48.556Z,3.53
2023-01-18T19:54:16.743Z,3.47
2023-01-18T19:56:45.017Z,3.70
2023-01-18T19:59:14.583Z,3.87
2023-01-18T20:01:43.022Z,4.40
2023-01-18T20:04:13.499Z,4.60
2023-01-18T20:06:45.932Z,4.07
2023-01-18T20:09:19.834Z,3.57
2023-01-18T20:11:48.713Z,3.80
2023-01-18T20:14:18.386Z,4.73
2023-01-18T20:16:46.849Z,4.30
2023-01-18T20:19:17.448Z,4.43
2023-01-18T20:21:45.710Z,3.53
2023-01-18T20:24:13.951Z,3.10
2023-01-18T20:26:42.387Z,3.63
2023-01-18T20:29:11.199Z,4.10
2023-01-18T20:31:41.078Z,4.17
2023-01-18T20:34:11.315Z,3.80
2023-01-18T20:36:41.138Z,3.07
2023-01-18T20:39:10.543Z,3.63
2023-01-18T20:41:38.819Z,3.63
2023-01-18T20:44:07.163Z,3.30
2023-01-18T20:46:35.411Z,3.57
2023-01-18T20:49:04.072Z,3.90
2023-01-18T20:51:32.507Z,4.10
2023-01-18T20:54:02.428Z,4.60
2023-01-18T20:56:32.068Z,3.60
2023-01-18T20:59:00.619Z,4.20
2023-01-18T21:01:32.651Z,4.20
2023-01-18T21:04:01.982Z,4.70
2023-01-18T21:06:30.669Z,3.60
2023-01-18T21:09:01.636Z,3.63
2023-01-18T21:11:29.952Z,4.85
2023-01-18T21:14:00.143Z,4.17
2023-01-18T21:16:28.844Z,4.10
2023-01-18T21:18:59.107Z,3.83
2023-01-18T21:21:29.418Z,3.87
2023-01-18T21:23:57.776Z,2.43
2023-01-18T21:26:27.499Z,3.93
2023-01-18T21:28:56.207Z,4.00
2023-01-18T21:31:24.882Z,3.50
2023-01-18T21:33:53.192Z,3.93
2023-01-18T21:36:22.998Z,3.40
2023-01-18T21:38:51.647Z,2.93
2023-01-18T21:41:37.316Z,3.63
2023-01-18T21:44:25.073Z,2.50
2023-01-18T21:46:53.901Z,3.77
2023-01-18T21:52:47.290Z,2.93
2023-01-18T21:55:16.442Z,3.53
2023-01-18T21:57:44.716Z,3.50
2023-01-18T22:00:15.603Z,3.60
2023-01-18T22:02:43.879Z,3.63
2023-01-18T22:05:11.114Z,3.60
2023-01-18T22:07:39.318Z,3.37
2023-01-18T22:10:07.894Z,3.50
2023-01-18T22:12:38.988Z,3.80
2023-01-18T22:15:08.157Z,3.70
2023-01-18T22:17:37.772Z,3.30
2023-01-18T22:20:06.912Z,3.90
2023-01-18T22:22:35.147Z,3.67
2023-01-18T22:25:03.395Z,3.57
2023-01-18T22:27:31.678Z,3.43
2023-01-18T22:30:00.147Z,3.63
2023-01-18T22:32:28.637Z,3.57
2023-01-18T22:34:58.419Z,4.17
2023-01-18T22:37:27.804Z,3.77
2023-01-18T22:39:56.100Z,3.77
2023-01-18T22:42:24.387Z,3.30
2023-01-18T22:44:52.626Z,3.33
2023-01-18T22:47:20.864Z,3.47
2023-01-18T22:49:49.045Z,3.27
2023-01-18T22:52:18.654Z,3.17
2023-01-18T22:54:46.795Z,3.53
2023-01-18T22:57:15.075Z,3.00
2023-01-18T22:59:43.257Z,2.90
2023-01-18T23:02:11.434Z,3.47
2023-01-18T23:04:39.658Z,2.90
2023-01-18T23:07:07.912Z,3.40
2023-01-18T23:09:37.512Z,3.77
2023-01-18T23:12:06.270Z,3.10
2023-01-18T23:14:52.065Z,3.80
2023-01-18T23:17:37.520Z,3.43
2023-01-18T23:20:06.968Z,3.57
2023-01-18T23:22:35.152Z,3.77
2023-01-18T23:25:05.034Z,2.97
2023-01-18T23:27:33.207Z,3.00
2023-01-18T23:30:02.576Z,3.57
2023-01-18T23:32:31.600Z,3.43
2023-01-18T23:35:00.645Z,3.57
2023-01-18T23:37:29.431Z,3.20
2023-01-18T23:40:15.214Z,3.33
2023-01-18T23:43:02.280Z,2.83
2023-01-18T23:45:48.293Z,2.80
2023-01-18T23:48:35.700Z,2.93
2023-01-18T23:51:22.503Z,3.57
2023-01-18T23:54:08.093Z,3.20
2023-01-18T23:56:36.467Z,2.87
2023-01-18T23:59:06.122Z,3.07
